createdAt,value
2022-10-16T00:00:45.926Z,12.56
2022-10-16T00:01:45.958Z,12.62
2022-10-16T00:03:45.881Z,12.53
2022-10-16T00:04:45.874Z,12.59
2022-10-16T00:05:45.867Z,12.56
2022-10-16T00:06:45.852Z,12.53
2022-10-16T00:07:45.871Z,12.52
2022-10-16T00:08:45.836Z,12.52
2022-10-16T00:09:45.815Z,12.52
2022-10-16T00:10:45.827Z,12.49
2022-10-16T00:11:45.850Z,12.39
2022-10-16T00:12:45.799Z,12.42
2022-10-16T00:13:45.779Z,12.45
2022-10-16T00:14:45.759Z,12.39
2022-10-16T00:15:45.765Z,12.27
2022-10-16T00:16:45.738Z,12.37
2022-10-16T00:17:45.781Z,12.28
2022-10-16T00:18:45.710Z,12.39
2022-10-16T00:19:45.699Z,12.28
2022-10-16T00:20:45.786Z,12.42
2022-10-16T00:21:45.682Z,12.31
2022-10-16T00:22:45.669Z,12.41
2022-10-16T00:23:45.712Z,12.39
2022-10-16T00:24:45.644Z,12.28
2022-10-16T00:25:45.671Z,12.35
2022-10-16T00:26:45.633Z,12.41
2022-10-16T00:27:45.613Z,12.39
2022-10-16T00:28:45.673Z,12.35
2022-10-16T00:29:45.585Z,12.29
2022-10-16T00:30:45.577Z,12.27
2022-10-16T00:31:45.582Z,12.31
2022-10-16T00:32:45.565Z,12.31
2022-10-16T00:33:45.559Z,12.29
2022-10-16T00:34:45.535Z,12.28
2022-10-16T00:35:45.517Z,12.32
2022-10-16T00:36:45.539Z,12.27
2022-10-16T00:37:45.490Z,12.27
2022-10-16T00:38:45.497Z,12.24
2022-10-16T00:39:45.486Z,12.19
2022-10-16T00:40:45.476Z,12.19
2022-10-16T00:41:45.465Z,12.21
2022-10-16T00:42:45.459Z,12.13
2022-10-16T00:43:45.473Z,12.13
2022-10-16T00:44:45.487Z,12.07
2022-10-16T00:45:45.528Z,12.13
2022-10-16T00:46:45.397Z,12.13
2022-10-16T00:47:45.394Z,12.04
2022-10-16T00:48:45.386Z,11.95
2022-10-16T00:49:45.356Z,11.95
2022-10-16T00:50:45.355Z,11.94
2022-10-16T00:51:45.337Z,11.88
2022-10-16T00:52:53.066Z,11.82
2022-10-16T00:53:46.333Z,11.85
2022-10-16T00:54:45.350Z,11.80
2022-10-16T00:55:45.478Z,11.76
2022-10-16T00:56:45.274Z,11.83
2022-10-16T00:57:45.265Z,11.83
2022-10-16T00:58:45.273Z,11.85
2022-10-16T00:59:45.250Z,11.75
2022-10-16T01:00:45.280Z,11.75
2022-10-16T01:01:45.229Z,11.75
2022-10-16T01:02:45.205Z,11.78
2022-10-16T01:03:45.192Z,11.76
2022-10-16T01:04:45.197Z,11.78
2022-10-16T01:05:45.175Z,11.78
2022-10-16T01:06:45.160Z,11.75
2022-10-16T01:07:45.332Z,11.76
2022-10-16T01:08:45.132Z,11.82
2022-10-16T01:09:45.143Z,11.75
2022-10-16T01:10:45.112Z,11.82
2022-10-16T01:11:47.930Z,11.76
2022-10-16T01:12:47.023Z,11.78
2022-10-16T01:13:45.093Z,11.80
2022-10-16T01:14:45.121Z,11.88
2022-10-16T01:15:45.057Z,11.76
2022-10-16T01:16:45.059Z,11.73
2022-10-16T01:17:45.030Z,11.83
2022-10-16T01:18:45.040Z,11.85
2022-10-16T01:19:45.024Z,11.86
2022-10-16T01:20:44.996Z,11.91
2022-10-16T01:21:44.985Z,11.83
2022-10-16T01:22:44.980Z,11.96
2022-10-16T01:23:44.981Z,11.98
2022-10-16T01:24:45.037Z,12.01
2022-10-16T01:25:44.951Z,12.07
2022-10-16T01:26:44.925Z,12.09
2022-10-16T01:27:44.915Z,12.02
2022-10-16T01:28:44.965Z,12.13
2022-10-16T01:29:44.893Z,12.16
2022-10-16T01:30:44.882Z,12.16
2022-10-16T01:31:44.904Z,12.17
2022-10-16T01:32:44.877Z,12.19
2022-10-16T01:33:44.915Z,12.16
2022-10-16T01:34:44.834Z,12.23
2022-10-16T01:35:44.841Z,12.19
2022-10-16T01:36:52.482Z,12.14
2022-10-16T01:37:52.457Z,12.20
2022-10-16T01:38:52.509Z,12.19
2022-10-16T01:39:44.909Z,12.17
2022-10-16T01:40:44.884Z,12.19
2022-10-16T01:41:44.863Z,12.21
2022-10-16T01:42:44.905Z,12.23
2022-10-16T01:43:44.897Z,12.21
2022-10-16T01:44:44.741Z,12.20
2022-10-16T01:45:44.745Z,12.34
2022-10-16T01:46:44.697Z,12.28
2022-10-16T01:47:44.748Z,12.31
2022-10-16T01:48:44.706Z,12.27
2022-10-16T01:49:44.677Z,12.32
2022-10-16T01:50:44.723Z,12.34
2022-10-16T01:51:44.646Z,12.27
2022-10-16T01:52:53.563Z,12.32
2022-10-16T01:53:44.623Z,12.31
2022-10-16T01:54:44.599Z,12.31
2022-10-16T01:55:44.592Z,12.39
2022-10-16T01:56:44.577Z,12.29
2022-10-16T01:57:44.595Z,12.32
2022-10-16T01:58:44.552Z,12.39
2022-10-16T01:59:44.559Z,12.42
2022-10-16T02:00:44.632Z,12.49
2022-10-16T02:01:44.519Z,12.46
2022-10-16T02:02:44.519Z,12.41
2022-10-16T02:03:44.499Z,12.46
2022-10-16T02:04:44.520Z,12.46
2022-10-16T02:05:44.478Z,12.53
2022-10-16T02:06:44.484Z,12.54
2022-10-16T02:07:44.453Z,12.57
2022-10-16T02:08:44.451Z,12.54
2022-10-16T02:09:44.431Z,12.59
2022-10-16T02:10:44.441Z,12.54
2022-10-16T02:11:44.412Z,12.54
2022-10-16T02:12:44.427Z,12.53
2022-10-16T02:13:44.383Z,12.54
2022-10-16T02:14:44.380Z,12.67
2022-10-16T02:15:44.377Z,12.57
2022-10-16T02:16:44.347Z,12.62
2022-10-16T02:17:44.335Z,12.60
2022-10-16T02:18:44.323Z,12.64
2022-10-16T02:19:44.316Z,12.65
2022-10-16T02:20:44.339Z,12.65
2022-10-16T02:21:44.310Z,12.71
2022-10-16T02:22:44.280Z,12.71
2022-10-16T02:23:44.284Z,12.74
2022-10-16T02:24:44.286Z,12.70
2022-10-16T02:25:44.263Z,12.72
2022-10-16T02:26:44.241Z,12.78
2022-10-16T02:27:44.220Z,12.74
2022-10-16T02:28:44.262Z,12.86
2022-10-16T02:29:44.242Z,12.78
2022-10-16T02:30:44.205Z,12.83
2022-10-16T02:31:44.177Z,12.85
2022-10-16T02:32:44.196Z,12.83
2022-10-16T02:33:44.170Z,12.82
2022-10-16T02:34:44.158Z,12.70
2022-10-16T02:35:44.130Z,12.75
2022-10-16T02:36:44.158Z,12.68
2022-10-16T02:37:44.125Z,12.75
2022-10-16T02:38:44.129Z,12.72
2022-10-16T02:39:44.082Z,12.79
2022-10-16T02:40:44.071Z,12.85
2022-10-16T02:41:44.081Z,12.78
2022-10-16T02:42:44.047Z,12.77
2022-10-16T02:43:44.057Z,12.71
2022-10-16T02:44:44.055Z,12.72
2022-10-16T02:45:44.021Z,12.85
2022-10-16T02:46:44.006Z,12.83
2022-10-16T02:47:43.995Z,12.83
2022-10-16T02:48:44.049Z,12.77
2022-10-16T02:49:43.990Z,12.74
2022-10-16T02:50:43.968Z,12.72
2022-10-16T02:51:43.957Z,12.70
2022-10-16T02:52:46.965Z,12.71
2022-10-16T02:53:43.942Z,12.67
2022-10-16T02:54:43.916Z,12.70
2022-10-16T02:55:43.904Z,12.65
2022-10-16T02:56:43.900Z,12.64
2022-10-16T02:57:43.897Z,12.65
2022-10-16T02:58:43.882Z,12.56
2022-10-16T02:59:43.862Z,12.65
2022-10-16T03:00:43.988Z,12.54
2022-10-16T03:01:43.832Z,12.53
2022-10-16T03:02:43.848Z,12.56
2022-10-16T03:03:43.829Z,12.52
2022-10-16T03:04:43.802Z,12.54
2022-10-16T03:05:43.808Z,12.52
2022-10-16T03:06:43.772Z,12.54
2022-10-16T03:07:43.763Z,12.54
2022-10-16T03:08:43.785Z,12.54
2022-10-16T03:09:43.760Z,12.57
2022-10-16T03:10:43.725Z,12.56
2022-10-16T03:11:43.715Z,12.56
2022-10-16T03:12:43.704Z,12.56
2022-10-16T03:13:43.692Z,12.52
2022-10-16T03:14:43.716Z,12.53
2022-10-16T03:15:43.727Z,12.56
2022-10-16T03:16:43.660Z,12.56
2022-10-16T03:17:43.645Z,12.54
2022-10-16T03:18:43.635Z,12.59
2022-10-16T03:19:43.625Z,12.64
2022-10-16T03:20:43.622Z,12.65
2022-10-16T03:21:43.682Z,12.65
2022-10-16T03:22:43.708Z,12.65
2022-10-16T03:23:43.592Z,12.62
2022-10-16T03:24:43.599Z,12.64
2022-10-16T03:25:43.597Z,12.59
2022-10-16T03:26:43.564Z,12.65
2022-10-16T03:27:43.544Z,12.53
2022-10-16T03:28:43.583Z,12.56
2022-10-16T03:29:43.510Z,12.52
2022-10-16T03:30:43.498Z,12.50
2022-10-16T03:31:43.505Z,12.53
2022-10-16T03:32:43.475Z,12.52
2022-10-16T03:33:43.476Z,12.39
2022-10-16T03:34:43.470Z,12.53
2022-10-16T03:35:43.469Z,12.46
2022-10-16T03:36:43.426Z,12.42
2022-10-16T03:37:43.420Z,12.49
2022-10-16T03:38:43.404Z,12.45
2022-10-16T03:39:43.431Z,12.42
2022-10-16T03:40:43.395Z,12.27
2022-10-16T03:41:43.369Z,12.29
2022-10-16T03:42:43.359Z,12.29
2022-10-16T03:43:43.348Z,12.34
2022-10-16T03:44:43.336Z,12.28
2022-10-16T03:45:50.397Z,12.34
2022-10-16T03:46:43.327Z,12.29
2022-10-16T03:47:43.313Z,12.31
2022-10-16T03:48:43.297Z,12.35
2022-10-16T03:49:43.304Z,12.46
2022-10-16T03:50:43.286Z,12.41
2022-10-16T03:51:43.255Z,12.41
2022-10-16T03:52:43.243Z,12.47
2022-10-16T03:53:43.234Z,12.46
2022-10-16T03:54:43.230Z,12.39
2022-10-16T03:55:43.248Z,12.52
2022-10-16T03:56:43.214Z,12.54
2022-10-16T03:57:43.186Z,12.62
2022-10-16T03:58:43.168Z,12.74
2022-10-16T03:59:43.164Z,12.72
2022-10-16T04:00:43.185Z,12.75
2022-10-16T04:01:43.184Z,12.74
2022-10-16T04:02:43.152Z,12.72
2022-10-16T04:03:43.114Z,12.74
2022-10-16T04:04:43.101Z,12.78
2022-10-16T04:05:43.100Z,12.65
2022-10-16T04:06:43.109Z,12.71
2022-10-16T04:07:43.080Z,12.65
2022-10-16T04:08:43.056Z,12.62
2022-10-16T04:09:43.059Z,12.56
2022-10-16T04:10:43.040Z,12.64
2022-10-16T04:11:43.042Z,12.67
2022-10-16T04:12:43.046Z,12.74
2022-10-16T04:13:43.010Z,12.74
2022-10-16T04:14:42.989Z,12.78
2022-10-16T04:15:42.981Z,12.75
2022-10-16T04:16:42.993Z,12.77
2022-10-16T04:17:42.975Z,12.77
2022-10-16T04:18:42.943Z,12.79
2022-10-16T04:19:42.939Z,12.82
2022-10-16T04:20:42.924Z,12.89
2022-10-16T04:21:42.923Z,13.00
2022-10-16T04:22:42.924Z,12.96
2022-10-16T04:23:42.918Z,13.08
2022-10-16T04:24:42.933Z,13.17
2022-10-16T04:25:42.871Z,13.15
2022-10-16T04:26:42.884Z,13.25
2022-10-16T04:27:45.986Z,13.22
2022-10-16T04:28:42.938Z,13.20
2022-10-16T04:29:42.822Z,13.33
2022-10-16T04:30:42.824Z,13.30
2022-10-16T04:31:42.809Z,13.44
2022-10-16T04:32:42.784Z,13.45
2022-10-16T04:33:43.874Z,13.41
2022-10-16T04:34:42.763Z,13.54
2022-10-16T04:35:42.754Z,13.57
2022-10-16T04:36:42.741Z,13.49
2022-10-16T04:37:42.756Z,13.52
2022-10-16T04:38:42.728Z,13.55
2022-10-16T04:39:42.703Z,13.59
2022-10-16T04:40:42.728Z,13.52
2022-10-16T04:41:42.700Z,13.51
2022-10-16T04:42:42.693Z,13.55
2022-10-16T04:43:42.662Z,13.57
2022-10-16T04:44:42.663Z,13.55
2022-10-16T04:45:42.636Z,13.57
2022-10-16T04:46:42.632Z,13.55
2022-10-16T04:47:42.643Z,13.60
2022-10-16T04:48:42.614Z,13.54
2022-10-16T04:49:42.590Z,13.54
2022-10-16T04:50:42.588Z,13.54
2022-10-16T04:51:42.578Z,13.52
2022-10-16T04:52:42.587Z,13.62
2022-10-16T04:53:42.548Z,13.49
2022-10-16T04:54:42.537Z,13.52
2022-10-16T04:55:42.527Z,13.55
2022-10-16T04:56:42.510Z,13.55
2022-10-16T04:57:42.525Z,13.54
2022-10-16T04:58:43.453Z,13.55
2022-10-16T04:59:42.478Z,13.52
2022-10-16T05:00:42.478Z,13.44
2022-10-16T05:01:42.657Z,13.55
2022-10-16T05:02:42.629Z,13.48
2022-10-16T05:03:42.432Z,13.41
2022-10-16T05:04:42.427Z,13.44
2022-10-16T05:05:42.420Z,13.46
2022-10-16T05:06:42.469Z,13.42
2022-10-16T05:07:42.443Z,13.45
2022-10-16T05:08:42.394Z,13.46
2022-10-16T05:09:42.360Z,13.44
2022-10-16T05:10:42.354Z,13.41
2022-10-16T05:11:42.347Z,13.48
2022-10-16T05:12:42.344Z,13.57
2022-10-16T05:13:42.345Z,13.51
2022-10-16T05:14:42.314Z,13.54
2022-10-16T05:15:42.290Z,13.44
2022-10-16T05:16:43.554Z,13.44
2022-10-16T05:17:44.632Z,13.45
2022-10-16T05:18:42.271Z,13.42
2022-10-16T05:19:42.251Z,13.48
2022-10-16T05:20:42.241Z,13.44
2022-10-16T05:21:42.221Z,13.41
2022-10-16T05:22:42.245Z,13.44
2022-10-16T05:23:42.265Z,13.33
2022-10-16T05:24:42.208Z,13.46
2022-10-16T05:25:42.236Z,13.42
2022-10-16T05:26:42.165Z,13.49
2022-10-16T05:27:42.153Z,13.44
2022-10-16T05:28:42.248Z,13.49
2022-10-16T05:29:42.132Z,13.44
2022-10-16T05:30:42.151Z,13.38
2022-10-16T05:31:42.110Z,13.38
2022-10-16T05:32:42.112Z,13.36
2022-10-16T05:33:42.154Z,13.38
2022-10-16T05:34:42.080Z,13.32
2022-10-16T05:35:42.061Z,13.33
2022-10-16T05:36:42.058Z,13.33
2022-10-16T05:37:42.041Z,13.36
2022-10-16T05:38:42.048Z,13.32
2022-10-16T05:39:42.023Z,13.23
2022-10-16T05:40:42.014Z,13.23
2022-10-16T05:41:42.000Z,13.30
2022-10-16T05:42:41.997Z,13.29
2022-10-16T05:43:41.981Z,13.28
2022-10-16T05:44:41.980Z,13.22
2022-10-16T05:45:41.955Z,13.26
2022-10-16T05:46:41.945Z,13.29
2022-10-16T05:47:41.959Z,13.32
2022-10-16T05:48:41.934Z,13.23
2022-10-16T05:49:41.905Z,13.20
2022-10-16T05:50:41.919Z,13.15
2022-10-16T05:51:41.881Z,13.12
2022-10-16T05:52:41.907Z,13.20
2022-10-16T05:53:41.861Z,13.11
2022-10-16T05:54:42.060Z,13.15
2022-10-16T05:55:41.837Z,13.08
2022-10-16T05:56:49.073Z,13.00
2022-10-16T05:57:41.857Z,13.04
2022-10-16T05:58:41.802Z,13.08
2022-10-16T05:59:41.824Z,13.05
2022-10-16T06:00:41.779Z,13.10
2022-10-16T06:01:41.766Z,13.15
2022-10-16T06:02:41.789Z,13.08
2022-10-16T06:03:41.753Z,13.05
2022-10-16T06:04:41.754Z,13.11
2022-10-16T06:05:41.720Z,13.01
2022-10-16T06:06:41.710Z,12.96
2022-10-16T06:07:41.726Z,13.01
2022-10-16T06:08:41.690Z,13.10
2022-10-16T06:09:41.675Z,13.01
2022-10-16T06:10:41.666Z,13.03
2022-10-16T06:11:41.655Z,13.03
2022-10-16T06:12:41.664Z,13.05
2022-10-16T06:13:41.647Z,12.95
2022-10-16T06:14:41.999Z,13.05
2022-10-16T06:15:41.610Z,13.01
2022-10-16T06:16:41.595Z,13.03
2022-10-16T06:17:41.616Z,13.03
2022-10-16T06:18:41.579Z,12.95
2022-10-16T06:19:41.562Z,13.01
2022-10-16T06:20:41.572Z,12.96
2022-10-16T06:21:41.545Z,13.01
2022-10-16T06:22:41.556Z,13.01
2022-10-16T06:23:41.556Z,12.89
2022-10-16T06:24:41.506Z,12.97
2022-10-16T06:25:41.500Z,12.90
2022-10-16T06:26:41.486Z,12.93
2022-10-16T06:27:41.498Z,13.01
2022-10-16T06:28:41.505Z,13.04
2022-10-16T06:29:41.452Z,13.00
2022-10-16T06:30:41.441Z,12.97
2022-10-16T06:31:41.431Z,12.96
2022-10-16T06:32:41.444Z,13.01
2022-10-16T06:33:41.405Z,13.05
2022-10-16T06:34:43.362Z,13.10
2022-10-16T06:35:41.381Z,13.15
2022-10-16T06:36:41.392Z,13.20
2022-10-16T06:37:41.384Z,13.15
2022-10-16T06:38:41.353Z,13.25
2022-10-16T06:39:41.356Z,13.22
2022-10-16T06:40:41.329Z,13.28
2022-10-16T06:41:41.318Z,13.23
2022-10-16T06:42:41.353Z,13.29
2022-10-16T06:43:41.308Z,13.26
2022-10-16T06:44:41.283Z,13.41
2022-10-16T06:45:41.275Z,13.42
2022-10-16T06:46:41.268Z,13.36
2022-10-16T06:47:41.282Z,13.46
2022-10-16T06:48:41.246Z,13.48
2022-10-16T06:49:41.237Z,13.54
2022-10-16T06:50:41.249Z,13.54
2022-10-16T06:51:43.108Z,13.67
2022-10-16T06:52:41.236Z,13.64
2022-10-16T06:54:01.244Z,13.62
2022-10-16T06:54:42.715Z,13.77
2022-10-16T06:55:41.170Z,13.75
2022-10-16T06:56:41.159Z,13.77
2022-10-16T06:57:41.141Z,13.81
2022-10-16T06:58:41.131Z,13.89
2022-10-16T06:59:44.066Z,13.79
2022-10-16T07:00:42.123Z,13.85
2022-10-16T07:01:41.109Z,13.95
2022-10-16T07:02:41.088Z,13.96
2022-10-16T07:03:41.076Z,13.92
2022-10-16T07:04:41.098Z,14.00
2022-10-16T07:05:41.083Z,14.07
2022-10-16T07:06:41.045Z,14.03
2022-10-16T07:07:41.030Z,14.09
2022-10-16T07:08:41.043Z,14.03
2022-10-16T07:09:41.009Z,14.10
2022-10-16T07:10:41.027Z,14.14
2022-10-16T07:11:40.987Z,14.12
2022-10-16T07:12:40.977Z,14.21
2022-10-16T07:13:40.969Z,14.24
2022-10-16T07:14:40.958Z,14.39
2022-10-16T07:15:40.945Z,14.29
2022-10-16T07:16:40.954Z,14.25
2022-10-16T07:17:40.919Z,14.42
2022-10-16T07:18:40.917Z,14.46
2022-10-16T07:19:40.906Z,14.54
2022-10-16T07:20:40.955Z,14.55
2022-10-16T07:21:40.906Z,14.58
2022-10-16T07:22:40.868Z,14.64
2022-10-16T07:23:40.853Z,14.65
2022-10-16T07:24:40.874Z,14.62
2022-10-16T07:25:40.834Z,14.75
2022-10-16T07:26:40.839Z,14.75
2022-10-16T07:27:40.810Z,14.81
2022-10-16T07:28:40.869Z,14.81
2022-10-16T07:29:40.807Z,14.92
2022-10-16T07:30:40.775Z,14.92
2022-10-16T07:31:40.758Z,15.02
2022-10-16T07:32:40.792Z,15.06
2022-10-16T07:33:40.737Z,14.95
2022-10-16T07:34:40.743Z,15.07
2022-10-16T07:35:40.715Z,15.11
2022-10-16T07:37:40.696Z,15.19
2022-10-16T07:38:40.702Z,15.19
2022-10-16T07:39:40.669Z,15.28
2022-10-16T07:40:40.677Z,15.31
2022-10-16T07:41:40.656Z,15.25
2022-10-16T07:42:40.638Z,15.35
2022-10-16T07:43:40.646Z,15.41
2022-10-16T07:44:40.615Z,15.39
2022-10-16T07:45:40.611Z,15.35
2022-10-16T07:46:40.604Z,15.43
2022-10-16T07:47:40.590Z,15.46
2022-10-16T07:48:40.618Z,15.43
2022-10-16T07:49:40.576Z,15.46
2022-10-16T07:50:40.560Z,15.47
2022-10-16T07:51:40.572Z,15.49
2022-10-16T07:52:40.520Z,15.56
2022-10-16T07:53:40.530Z,15.57
2022-10-16T07:54:40.507Z,15.57
2022-10-16T07:55:40.496Z,15.68
2022-10-16T07:56:43.745Z,15.68
2022-10-16T07:57:40.474Z,15.67
2022-10-16T07:58:40.458Z,15.74
2022-10-16T07:59:40.458Z,15.71
2022-10-16T08:00:40.431Z,15.74
2022-10-16T08:01:40.566Z,15.82
2022-10-16T08:02:40.411Z,15.87
2022-10-16T08:03:40.391Z,15.86
2022-10-16T08:04:40.407Z,15.96
2022-10-16T08:05:40.370Z,16.04
2022-10-16T08:06:40.361Z,16.02
2022-10-16T08:07:40.353Z,16.02
2022-10-16T08:08:40.371Z,16.11
2022-10-16T08:09:40.349Z,16.09
2022-10-16T08:10:40.316Z,16.14
2022-10-16T08:11:40.324Z,16.15
2022-10-16T08:12:40.314Z,16.24
2022-10-16T08:13:40.284Z,16.24
2022-10-16T08:14:42.287Z,16.23
2022-10-16T08:15:40.267Z,16.34
2022-10-16T08:16:40.256Z,16.23
2022-10-16T08:17:40.240Z,16.30
2022-10-16T08:18:40.254Z,16.30
2022-10-16T08:19:40.270Z,16.33
2022-10-16T08:20:40.199Z,16.43
2022-10-16T08:21:40.221Z,16.50
2022-10-16T08:22:40.212Z,16.50
2022-10-16T08:23:40.165Z,16.56
2022-10-16T08:24:40.160Z,16.52
2022-10-16T08:25:40.149Z,16.53
2022-10-16T08:26:40.133Z,16.56
2022-10-16T08:27:40.130Z,16.57
2022-10-16T08:28:40.199Z,16.67
2022-10-16T08:29:40.120Z,16.61
2022-10-16T08:30:40.095Z,16.56
2022-10-16T08:31:40.078Z,16.71
2022-10-16T08:32:40.070Z,16.58
2022-10-16T08:33:40.246Z,16.63
2022-10-16T08:34:40.048Z,16.71
2022-10-16T08:35:40.061Z,16.70
2022-10-16T08:36:40.041Z,16.73
2022-10-16T08:37:40.025Z,16.78
2022-10-16T08:38:39.999Z,16.75
2022-10-16T08:39:40.009Z,16.82
2022-10-16T08:40:39.985Z,16.82
2022-10-16T08:41:39.965Z,16.78
2022-10-16T08:42:39.957Z,16.91
2022-10-16T08:43:39.941Z,16.86
2022-10-16T08:44:39.965Z,16.93
2022-10-16T08:45:39.932Z,16.91
2022-10-16T08:46:39.914Z,16.85
2022-10-16T08:47:39.899Z,16.88
2022-10-16T08:48:39.904Z,16.94
2022-10-16T08:49:39.914Z,16.96
2022-10-16T08:50:39.921Z,17.06
2022-10-16T08:51:43.312Z,17.06
2022-10-16T08:52:39.837Z,17.11
2022-10-16T08:53:39.830Z,17.14
2022-10-16T08:54:39.855Z,17.16
2022-10-16T08:55:39.801Z,17.30
2022-10-16T08:56:39.791Z,17.31
2022-10-16T08:57:39.804Z,17.41
2022-10-16T08:58:39.840Z,17.48
2022-10-16T08:59:39.760Z,17.41
2022-10-16T09:00:39.884Z,17.41
2022-10-16T09:01:39.755Z,17.49
2022-10-16T09:02:39.718Z,17.54
2022-10-16T09:03:39.710Z,17.55
2022-10-16T09:04:39.699Z,17.64
2022-10-16T09:05:39.689Z,17.59
2022-10-16T09:06:39.696Z,17.63
2022-10-16T09:07:39.706Z,17.64
2022-10-16T09:08:39.657Z,17.66
2022-10-16T09:09:39.644Z,17.62
2022-10-16T09:10:39.634Z,17.66
2022-10-16T09:11:39.624Z,17.70
2022-10-16T09:12:39.633Z,17.71
2022-10-16T09:13:39.612Z,17.74
2022-10-16T09:14:39.592Z,17.77
2022-10-16T09:15:39.574Z,17.82
2022-10-16T09:16:39.590Z,17.75
2022-10-16T09:17:39.554Z,17.78
2022-10-16T09:18:39.595Z,17.75
2022-10-16T09:19:39.529Z,17.82
2022-10-16T09:20:39.540Z,17.78
2022-10-16T09:21:39.508Z,17.82
2022-10-16T09:22:39.493Z,17.74
2022-10-16T09:23:39.526Z,17.74
2022-10-16T09:24:39.486Z,17.78
2022-10-16T09:25:39.464Z,17.75
2022-10-16T09:26:39.468Z,17.81
2022-10-16T09:27:39.439Z,17.75
2022-10-16T09:28:39.544Z,17.68
2022-10-16T09:29:39.417Z,17.71
2022-10-16T09:30:39.432Z,17.64
2022-10-16T09:31:39.396Z,17.66
2022-10-16T09:32:42.074Z,17.70
2022-10-16T09:33:39.395Z,17.70
2022-10-16T09:34:39.377Z,17.64
2022-10-16T09:35:39.347Z,17.63
2022-10-16T09:36:39.332Z,17.64
2022-10-16T09:37:39.360Z,17.66
2022-10-16T09:38:39.309Z,17.62
2022-10-16T09:39:39.303Z,17.59
2022-10-16T09:40:39.303Z,17.62
2022-10-16T09:41:39.304Z,17.59
2022-10-16T09:42:39.266Z,17.55
2022-10-16T09:43:39.276Z,17.58
2022-10-16T09:45:46.296Z,17.64
2022-10-16T09:46:39.257Z,17.72
2022-10-16T09:47:39.238Z,17.70
2022-10-16T09:48:39.224Z,17.78
2022-10-16T09:49:39.186Z,17.78
2022-10-16T09:50:39.221Z,17.79
2022-10-16T09:51:39.170Z,17.79
2022-10-16T09:52:39.148Z,17.79
2022-10-16T09:53:39.152Z,17.75
2022-10-16T09:54:39.131Z,17.79
2022-10-16T09:55:39.122Z,17.79
2022-10-16T09:56:39.123Z,17.78
2022-10-16T09:57:39.092Z,17.81
2022-10-16T09:58:39.081Z,17.78
2022-10-16T09:59:39.091Z,17.87
2022-10-16T10:00:39.064Z,17.77
2022-10-16T10:01:39.055Z,17.86
2022-10-16T10:02:39.037Z,17.84
2022-10-16T10:03:39.092Z,17.77
2022-10-16T10:04:39.048Z,17.75
2022-10-16T10:05:39.006Z,17.71
2022-10-16T10:06:39.078Z,17.77
2022-10-16T10:07:38.982Z,17.79
2022-10-16T10:08:38.990Z,17.79
2022-10-16T10:09:38.959Z,17.74
2022-10-16T10:10:38.969Z,17.81
2022-10-16T10:11:38.939Z,17.82
2022-10-16T10:12:38.944Z,17.84
2022-10-16T10:13:38.914Z,17.82
2022-10-16T10:14:38.919Z,17.75
2022-10-16T10:15:38.891Z,17.75
2022-10-16T10:16:38.925Z,17.77
2022-10-16T10:17:38.867Z,17.77
2022-10-16T10:18:38.885Z,17.79
2022-10-16T10:19:38.851Z,17.82
2022-10-16T10:20:38.868Z,17.75
2022-10-16T10:21:38.838Z,17.75
2022-10-16T10:22:38.821Z,17.81
2022-10-16T10:23:38.803Z,17.78
2022-10-16T10:24:38.792Z,17.75
2022-10-16T10:25:38.800Z,17.78
2022-10-16T10:26:40.163Z,17.84
2022-10-16T10:27:38.759Z,17.90
2022-10-16T10:28:38.804Z,17.87
2022-10-16T10:29:38.747Z,17.99
2022-10-16T10:30:38.742Z,18.02
2022-10-16T10:31:38.710Z,18.08
2022-10-16T10:32:38.758Z,18.18
2022-10-16T10:33:38.709Z,18.25
2022-10-16T10:34:38.691Z,18.29
2022-10-16T10:35:38.664Z,18.26
2022-10-16T10:36:38.696Z,18.25
2022-10-16T10:37:38.640Z,18.27
2022-10-16T10:38:38.650Z,18.30
2022-10-16T10:39:38.637Z,18.35
2022-10-16T10:40:38.628Z,18.35
2022-10-16T10:41:38.610Z,18.32
2022-10-16T10:42:38.585Z,18.36
2022-10-16T10:43:38.572Z,18.37
2022-10-16T10:44:38.593Z,18.47
2022-10-16T10:45:38.561Z,18.48
2022-10-16T10:46:42.016Z,18.45
2022-10-16T10:47:39.529Z,18.47
2022-10-16T10:48:38.518Z,18.47
2022-10-16T10:49:38.541Z,18.45
2022-10-16T10:50:38.510Z,18.41
2022-10-16T10:51:38.499Z,18.39
2022-10-16T10:52:38.484Z,18.45
2022-10-16T10:53:38.496Z,18.47
2022-10-16T10:54:38.449Z,18.47
2022-10-16T10:55:38.436Z,18.45
2022-10-16T10:56:38.428Z,18.48
2022-10-16T10:57:38.454Z,18.50
2022-10-16T10:58:38.398Z,18.51
2022-10-16T10:59:38.393Z,18.51
2022-10-16T11:00:38.396Z,18.52
2022-10-16T11:01:38.509Z,18.52
2022-10-16T11:02:38.353Z,18.48
2022-10-16T11:03:38.343Z,18.51
2022-10-16T11:04:38.332Z,18.55
2022-10-16T11:05:38.394Z,18.70
2022-10-16T11:06:38.347Z,18.62
2022-10-16T11:07:38.305Z,18.70
2022-10-16T11:08:38.322Z,18.62
2022-10-16T11:09:38.276Z,18.62
2022-10-16T11:10:38.271Z,18.70
2022-10-16T11:11:38.250Z,18.67
2022-10-16T11:12:38.264Z,18.66
2022-10-16T11:13:38.269Z,18.82
2022-10-16T11:14:38.220Z,18.80
2022-10-16T11:15:38.259Z,18.81
2022-10-16T11:16:38.216Z,18.81
2022-10-16T11:17:38.188Z,18.82
2022-10-16T11:18:38.178Z,18.85
2022-10-16T11:19:38.181Z,18.84
2022-10-16T11:20:38.150Z,18.94
2022-10-16T11:21:38.143Z,18.92
2022-10-16T11:22:38.146Z,18.92
2022-10-16T11:23:38.124Z,19.00
2022-10-16T11:24:38.138Z,19.00
2022-10-16T11:25:38.090Z,19.06
2022-10-16T11:26:38.085Z,19.02
2022-10-16T11:27:38.078Z,18.98
2022-10-16T11:28:38.101Z,19.10
2022-10-16T11:29:38.044Z,19.07
2022-10-16T11:30:38.035Z,19.07
2022-10-16T11:31:38.042Z,19.10
2022-10-16T11:32:38.022Z,19.11
2022-10-16T11:33:38.023Z,19.18
2022-10-16T11:34:38.074Z,19.18
2022-10-16T11:35:37.990Z,19.23
2022-10-16T11:36:37.991Z,19.23
2022-10-16T11:37:37.954Z,19.26
2022-10-16T11:38:37.969Z,19.22
2022-10-16T11:39:37.934Z,19.22
2022-10-16T11:40:37.936Z,19.36
2022-10-16T11:41:37.928Z,19.32
2022-10-16T11:42:37.917Z,19.36
2022-10-16T11:43:37.895Z,19.36
2022-10-16T11:44:37.881Z,19.44
2022-10-16T11:45:37.883Z,19.56
2022-10-16T11:46:52.545Z,19.46
2022-10-16T11:47:59.117Z,19.56
2022-10-16T11:48:38.865Z,19.54
2022-10-16T11:49:37.820Z,19.62
2022-10-16T11:50:37.813Z,19.62
2022-10-16T11:51:37.808Z,19.66
2022-10-16T11:52:37.783Z,19.63
2022-10-16T11:53:37.793Z,19.63
2022-10-16T11:54:37.763Z,19.76
2022-10-16T11:55:40.567Z,19.68
2022-10-16T11:56:38.752Z,19.69
2022-10-16T11:57:37.751Z,19.66
2022-10-16T11:58:37.722Z,19.78
2022-10-16T11:59:37.705Z,19.71
2022-10-16T12:00:37.694Z,19.77
2022-10-16T12:01:37.687Z,19.71
2022-10-16T12:02:37.699Z,19.78
2022-10-16T12:03:37.792Z,19.78
2022-10-16T12:04:37.679Z,19.87
2022-10-16T12:05:37.659Z,19.86
2022-10-16T12:06:37.647Z,19.81
2022-10-16T12:07:37.630Z,19.81
2022-10-16T12:08:37.623Z,19.92
2022-10-16T12:09:37.620Z,19.88
2022-10-16T12:11:37.633Z,19.92
2022-10-16T12:12:38.027Z,19.91
2022-10-16T12:13:37.566Z,19.96
2022-10-16T12:14:57.272Z,19.96
2022-10-16T12:15:58.091Z,19.94
2022-10-16T12:16:38.516Z,19.98
2022-10-16T12:17:37.503Z,19.86
2022-10-16T12:18:37.506Z,19.92
2022-10-16T12:19:37.495Z,19.83
2022-10-16T12:20:37.469Z,19.84
2022-10-16T12:21:37.500Z,19.87
2022-10-16T12:22:39.402Z,19.86
2022-10-16T12:23:37.431Z,19.91
2022-10-16T12:24:37.438Z,19.88
2022-10-16T12:25:37.456Z,19.87
2022-10-16T12:26:37.410Z,19.98
2022-10-16T12:27:37.386Z,19.96
2022-10-16T12:28:37.515Z,19.96
2022-10-16T12:29:37.379Z,19.91
2022-10-16T12:30:37.351Z,19.98
2022-10-16T12:31:40.346Z,19.96
2022-10-16T12:32:53.222Z,19.99
2022-10-16T12:33:38.315Z,20.02
2022-10-16T12:34:37.336Z,20.01
2022-10-16T12:35:37.292Z,20.11
2022-10-16T12:36:37.287Z,20.11
2022-10-16T12:37:37.272Z,20.13
2022-10-16T12:38:37.290Z,20.02
2022-10-16T12:39:37.264Z,20.13
2022-10-16T12:40:37.256Z,20.10
2022-10-16T12:41:37.226Z,20.11
2022-10-16T12:42:37.269Z,20.11
2022-10-16T12:43:37.209Z,20.11
2022-10-16T12:44:37.231Z,20.05
2022-10-16T12:45:44.228Z,20.01
2022-10-16T12:46:40.163Z,19.96
2022-10-16T12:47:37.173Z,19.83
2022-10-16T12:48:48.523Z,19.76
2022-10-16T12:49:38.160Z,19.74
2022-10-16T12:50:44.722Z,19.76
2022-10-16T12:51:44.678Z,19.63
2022-10-16T12:52:44.132Z,19.61
2022-10-16T12:53:37.092Z,19.58
2022-10-16T12:54:37.089Z,19.62
2022-10-16T12:55:37.098Z,19.50
2022-10-16T12:56:37.207Z,19.48